sensor_id;sensor_type;location;lat;lon;timestamp;temperature;humidity
53053;DHT22;38934;52.690;6.184;2024-02-15T00:01:54;11.10;99.90
53053;DHT22;38934;52.690;6.184;2024-02-15T00:04:19;11.10;99.90
53053;DHT22;38934;52.690;6.184;2024-02-15T00:06:45;11.20;99.90
53053;DHT22;38934;52.690;6.184;2024-02-15T00:09:11;11.10;99.90
53053;DHT22;38934;52.690;6.184;2024-02-15T00:11:36;11.00;99.90
53053;DHT22;38934;52.690;6.184;2024-02-15T00:14:04;11.10;99.90
53053;DHT22;38934;52.690;6.184;2024-02-15T00:16:30;11.10;99.90
53053;DHT22;38934;52.690;6.184;2024-02-15T00:18:56;11.20;99.90
53053;DHT22;38934;52.690;6.184;2024-02-15T00:21:22;11.10;99.90
53053;DHT22;38934;52.690;6.184;2024-02-15T00:23:50;11.10;99.90
53053;DHT22;38934;52.690;6.184;2024-02-15T00:26:16;11.10;99.90
53053;DHT22;38934;52.690;6.184;2024-02-15T00:28:42;11.00;99.90
53053;DHT22;38934;52.690;6.184;2024-02-15T00:31:08;11.10;99.90
53053;DHT22;38934;52.690;6.184;2024-02-15T00:33:34;11.00;99.90
53053;DHT22;38934;52.690;6.184;2024-02-15T00:36:00;11.10;99.90
53053;DHT22;38934;52.690;6.184;2024-02-15T00:38:27;11.00;99.90
53053;DHT22;38934;52.690;6.184;2024-02-15T00:40:52;11.90;99.90
53053;DHT22;38934;52.690;6.184;2024-02-15T00:43:18;11.10;99.90
53053;DHT22;38934;52.690;6.184;2024-02-15T00:45:44;11.80;99.90
53053;DHT22;38934;52.690;6.184;2024-02-15T00:48:10;10.90;99.90
53053;DHT22;38934;52.690;6.184;2024-02-15T00:50:36;11.00;99.90
53053;DHT22;38934;52.690;6.184;2024-02-15T00:53:02;11.00;99.90
53053;DHT22;38934;52.690;6.184;2024-02-15T00:55:28;11.00;99.90
53053;DHT22;38934;52.690;6.184;2024-02-15T00:57:53;11.10;99.90
53053;DHT22;38934;52.690;6.184;2024-02-15T01:00:19;11.00;99.90
53053;DHT22;38934;52.690;6.184;2024-02-15T01:02:46;11.00;99.90
53053;DHT22;38934;52.690;6.184;2024-02-15T01:05:12;11.10;99.90
53053;DHT22;38934;52.690;6.184;2024-02-15T01:07:41;11.10;99.90
53053;DHT22;38934;52.690;6.184;2024-02-15T01:10:07;11.10;99.90
53053;DHT22;38934;52.690;6.184;2024-02-15T01:12:33;11.10;99.90
53053;DHT22;38934;52.690;6.184;2024-02-15T01:14:59;11.70;99.90
53053;DHT22;38934;52.690;6.184;2024-02-15T01:17:24;11.10;99.90
53053;DHT22;38934;52.690;6.184;2024-02-15T01:19:50;11.10;99.90
53053;DHT22;38934;52.690;6.184;2024-02-15T01:22:16;11.20;99.90
53053;DHT22;38934;52.690;6.184;2024-02-15T01:24:42;11.10;99.90
53053;DHT22;38934;52.690;6.184;2024-02-15T01:27:08;11.10;99.90
53053;DHT22;38934;52.690;6.184;2024-02-15T01:29:35;11.10;99.90
53053;DHT22;38934;52.690;6.184;2024-02-15T01:32:01;11.10;99.90
53053;DHT22;38934;52.690;6.184;2024-02-15T01:34:28;11.10;99.90
53053;DHT22;38934;52.690;6.184;2024-02-15T01:36:54;11.10;99.90
53053;DHT22;38934;52.690;6.184;2024-02-15T01:39:19;11.10;99.90
53053;DHT22;38934;52.690;6.184;2024-02-15T01:41:48;11.20;99.90
53053;DHT22;38934;52.690;6.184;2024-02-15T01:44:21;11.00;99.90
53053;DHT22;38934;52.690;6.184;2024-02-15T01:46:47;11.10;99.90
53053;DHT22;38934;52.690;6.184;2024-02-15T01:49:14;11.10;99.90
53053;DHT22;38934;52.690;6.184;2024-02-15T01:51:41;11.50;99.90
53053;DHT22;38934;52.690;6.184;2024-02-15T01:54:10;11.10;99.90
53053;DHT22;38934;52.690;6.184;2024-02-15T01:56:36;11.10;99.90
53053;DHT22;38934;52.690;6.184;2024-02-15T01:59:02;11.00;99.90
53053;DHT22;38934;52.690;6.184;2024-02-15T02:01:30;11.10;99.90
53053;DHT22;38934;52.690;6.184;2024-02-15T02:03:58;11.00;99.90
53053;DHT22;38934;52.690;6.184;2024-02-15T02:06:24;11.10;99.90
53053;DHT22;38934;52.690;6.184;2024-02-15T02:08:50;11.10;99.90
53053;DHT22;38934;52.690;6.184;2024-02-15T02:11:16;11.00;99.90
53053;DHT22;38934;52.690;6.184;2024-02-15T02:13:41;11.10;99.90
53053;DHT22;38934;52.690;6.184;2024-02-15T02:16:29;11.00;99.90
53053;DHT22;38934;52.690;6.184;2024-02-15T02:18:57;11.10;99.90
53053;DHT22;38934;52.690;6.184;2024-02-15T02:21:25;11.00;99.90
53053;DHT22;38934;52.690;6.184;2024-02-15T02:23:58;11.10;99.90
53053;DHT22;38934;52.690;6.184;2024-02-15T02:26:24;11.10;99.90
53053;DHT22;38934;52.690;6.184;2024-02-15T02:28:51;11.20;99.90
53053;DHT22;38934;52.690;6.184;2024-02-15T02:31:19;11.10;99.90
53053;DHT22;38934;52.690;6.184;2024-02-15T02:33:54;11.10;99.90
53053;DHT22;38934;52.690;6.184;2024-02-15T02:36:20;11.40;99.90
53053;DHT22;38934;52.690;6.184;2024-02-15T02:38:47;11.10;99.90
53053;DHT22;38934;52.690;6.184;2024-02-15T02:41:16;11.30;99.90
53053;DHT22;38934;52.690;6.184;2024-02-15T02:43:41;11.20;99.90
53053;DHT22;38934;52.690;6.184;2024-02-15T02:46:10;11.60;99.90
53053;DHT22;38934;52.690;6.184;2024-02-15T02:48:36;11.30;99.90
53053;DHT22;38934;52.690;6.184;2024-02-15T02:51:02;11.20;99.90
53053;DHT22;38934;52.690;6.184;2024-02-15T02:53:28;11.30;99.90
53053;DHT22;38934;52.690;6.184;2024-02-15T02:55:55;11.20;99.90
53053;DHT22;38934;52.690;6.184;2024-02-15T02:58:22;11.20;99.90
53053;DHT22;38934;52.690;6.184;2024-02-15T03:00:51;11.20;99.90
53053;DHT22;38934;52.690;6.184;2024-02-15T03:03:18;11.30;99.90
53053;DHT22;38934;52.690;6.184;2024-02-15T03:05:44;11.40;99.90
53053;DHT22;38934;52.690;6.184;2024-02-15T03:08:11;11.20;99.90
53053;DHT22;38934;52.690;6.184;2024-02-15T03:10:38;11.30;99.90
53053;DHT22;38934;52.690;6.184;2024-02-15T03:13:05;11.80;99.90
53053;DHT22;38934;52.690;6.184;2024-02-15T03:15:31;11.50;99.90
53053;DHT22;38934;52.690;6.184;2024-02-15T03:17:58;11.40;99.90
53053;DHT22;38934;52.690;6.184;2024-02-15T03:20:24;11.30;99.90
53053;DHT22;38934;52.690;6.184;2024-02-15T03:22:59;11.40;99.90
53053;DHT22;38934;52.690;6.184;2024-02-15T03:25:25;11.40;99.90
53053;DHT22;38934;52.690;6.184;2024-02-15T03:27:52;11.40;99.90
53053;DHT22;38934;52.690;6.184;2024-02-15T03:30:22;11.40;99.90
53053;DHT22;38934;52.690;6.184;2024-02-15T03:32:49;11.60;99.90
53053;DHT22;38934;52.690;6.184;2024-02-15T03:35:17;11.40;99.90
53053;DHT22;38934;52.690;6.184;2024-02-15T03:37:43;11.30;99.90
53053;DHT22;38934;52.690;6.184;2024-02-15T03:40:09;11.30;99.90
53053;DHT22;38934;52.690;6.184;2024-02-15T03:42:35;11.40;99.90
53053;DHT22;38934;52.690;6.184;2024-02-15T03:45:06;11.40;99.90
53053;DHT22;38934;52.690;6.184;2024-02-15T03:47:32;11.40;99.90
53053;DHT22;38934;52.690;6.184;2024-02-15T03:49:59;11.70;99.90
53053;DHT22;38934;52.690;6.184;2024-02-15T03:52:25;11.80;99.90
53053;DHT22;38934;52.690;6.184;2024-02-15T03:54:50;11.30;99.90
53053;DHT22;38934;52.690;6.184;2024-02-15T03:57:18;11.30;99.90
53053;DHT22;38934;52.690;6.184;2024-02-15T03:59:46;11.30;99.90
53053;DHT22;38934;52.690;6.184;2024-02-15T04:02:16;11.40;99.90
53053;DHT22;38934;52.690;6.184;2024-02-15T04:04:41;11.40;99.90
53053;DHT22;38934;52.690;6.184;2024-02-15T04:07:08;11.50;99.90
53053;DHT22;38934;52.690;6.184;2024-02-15T04:09:37;11.30;99.90
53053;DHT22;38934;52.690;6.184;2024-02-15T04:12:02;12.20;99.90
53053;DHT22;38934;52.690;6.184;2024-02-15T04:14:28;11.50;99.90
53053;DHT22;38934;52.690;6.184;2024-02-15T04:16:54;11.50;99.90
53053;DHT22;38934;52.690;6.184;2024-02-15T04:19:19;11.50;99.90
53053;DHT22;38934;52.690;6.184;2024-02-15T04:21:45;11.50;99.90
53053;DHT22;38934;52.690;6.184;2024-02-15T04:24:12;11.40;99.90
53053;DHT22;38934;52.690;6.184;2024-02-15T04:26:38;11.60;99.90
53053;DHT22;38934;52.690;6.184;2024-02-15T04:29:04;11.40;99.90
53053;DHT22;38934;52.690;6.184;2024-02-15T04:31:30;11.40;99.90
53053;DHT22;38934;52.690;6.184;2024-02-15T04:33:57;11.30;99.90
53053;DHT22;38934;52.690;6.184;2024-02-15T04:36:24;11.50;99.90
53053;DHT22;38934;52.690;6.184;2024-02-15T04:38:51;11.50;99.90
53053;DHT22;38934;52.690;6.184;2024-02-15T04:41:18;11.40;99.90
53053;DHT22;38934;52.690;6.184;2024-02-15T04:43:48;11.50;99.90
53053;DHT22;38934;52.690;6.184;2024-02-15T04:46:13;11.40;99.90
53053;DHT22;38934;52.690;6.184;2024-02-15T04:48:40;11.50;99.90
53053;DHT22;38934;52.690;6.184;2024-02-15T04:51:07;11.50;99.90
53053;DHT22;38934;52.690;6.184;2024-02-15T04:53:33;11.50;99.90
53053;DHT22;38934;52.690;6.184;2024-02-15T04:55:58;11.40;99.90
53053;DHT22;38934;52.690;6.184;2024-02-15T04:58:26;11.40;99.90
53053;DHT22;38934;52.690;6.184;2024-02-15T05:00:54;11.40;99.90
53053;DHT22;38934;52.690;6.184;2024-02-15T05:03:24;11.50;99.90
53053;DHT22;38934;52.690;6.184;2024-02-15T05:05:49;11.40;99.90
53053;DHT22;38934;52.690;6.184;2024-02-15T05:08:15;11.30;99.90
53053;DHT22;38934;52.690;6.184;2024-02-15T05:10:41;11.50;99.90
53053;DHT22;38934;52.690;6.184;2024-02-15T05:13:07;11.40;99.90
53053;DHT22;38934;52.690;6.184;2024-02-15T05:15:33;11.40;99.90
53053;DHT22;38934;52.690;6.184;2024-02-15T05:17:59;11.40;99.90
53053;DHT22;38934;52.690;6.184;2024-02-15T05:20:26;11.20;99.90
53053;DHT22;38934;52.690;6.184;2024-02-15T05:22:52;11.20;99.90
53053;DHT22;38934;52.690;6.184;2024-02-15T05:25:19;11.20;99.90
53053;DHT22;38934;52.690;6.184;2024-02-15T05:27:48;11.30;99.90
53053;DHT22;38934;52.690;6.184;2024-02-15T05:30:14;11.30;99.90
53053;DHT22;38934;52.690;6.184;2024-02-15T05:32:40;11.20;99.90
53053;DHT22;38934;52.690;6.184;2024-02-15T05:35:11;11.60;99.90
53053;DHT22;38934;52.690;6.184;2024-02-15T05:37:37;11.30;99.90
53053;DHT22;38934;52.690;6.184;2024-02-15T05:40:04;11.30;99.90
53053;DHT22;38934;52.690;6.184;2024-02-15T05:42:30;11.30;99.90
53053;DHT22;38934;52.690;6.184;2024-02-15T05:44:57;11.40;99.90
53053;DHT22;38934;52.690;6.184;2024-02-15T05:47:40;11.30;99.90
53053;DHT22;38934;52.690;6.184;2024-02-15T05:50:06;11.30;99.90
53053;DHT22;38934;52.690;6.184;2024-02-15T05:52:32;11.30;99.90
53053;DHT22;38934;52.690;6.184;2024-02-15T05:54:58;12.00;99.90
53053;DHT22;38934;52.690;6.184;2024-02-15T05:57:23;12.10;99.90
53053;DHT22;38934;52.690;6.184;2024-02-15T05:59:49;11.40;99.90
53053;DHT22;38934;52.690;6.184;2024-02-15T06:02:14;11.50;99.90
53053;DHT22;38934;52.690;6.184;2024-02-15T06:04:41;11.50;99.90
53053;DHT22;38934;52.690;6.184;2024-02-15T06:07:06;11.30;99.90
53053;DHT22;38934;52.690;6.184;2024-02-15T06:09:35;11.40;99.90
53053;DHT22;38934;52.690;6.184;2024-02-15T06:12:02;11.40;99.90
53053;DHT22;38934;52.690;6.184;2024-02-15T06:14:28;11.30;99.90
53053;DHT22;38934;52.690;6.184;2024-02-15T06:16:53;11.40;99.90
53053;DHT22;38934;52.690;6.184;2024-02-15T06:19:21;11.50;99.90
53053;DHT22;38934;52.690;6.184;2024-02-15T06:21:47;12.20;99.90
53053;DHT22;38934;52.690;6.184;2024-02-15T06:24:12;11.40;99.90
53053;DHT22;38934;52.690;6.184;2024-02-15T06:26:39;11.50;99.90
53053;DHT22;38934;52.690;6.184;2024-02-15T06:29:04;11.40;99.90
53053;DHT22;38934;52.690;6.184;2024-02-15T06:31:49;11.40;99.90
53053;DHT22;38934;52.690;6.184;2024-02-15T06:34:33;11.60;99.90
53053;DHT22;38934;52.690;6.184;2024-02-15T06:37:35;11.60;99.90
53053;DHT22;38934;52.690;6.184;2024-02-15T06:40:20;11.60;99.90
53053;DHT22;38934;52.690;6.184;2024-02-15T06:42:46;11.50;99.90
53053;DHT22;38934;52.690;6.184;2024-02-15T06:45:12;11.50;99.90
53053;DHT22;38934;52.690;6.184;2024-02-15T06:47:41;11.60;99.90
53053;DHT22;38934;52.690;6.184;2024-02-15T06:50:13;11.40;99.90
53053;DHT22;38934;52.690;6.184;2024-02-15T06:52:39;11.40;99.90
53053;DHT22;38934;52.690;6.184;2024-02-15T06:55:09;11.30;99.90
53053;DHT22;38934;52.690;6.184;2024-02-15T06:57:39;12.30;99.90
53053;DHT22;38934;52.690;6.184;2024-02-15T07:00:10;11.40;99.90
53053;DHT22;38934;52.690;6.184;2024-02-15T07:02:40;11.40;99.90
53053;DHT22;38934;52.690;6.184;2024-02-15T07:05:06;11.40;99.90
53053;DHT22;38934;52.690;6.184;2024-02-15T07:07:32;11.50;99.90
53053;DHT22;38934;52.690;6.184;2024-02-15T07:09:59;11.50;99.90
53053;DHT22;38934;52.690;6.184;2024-02-15T07:12:28;11.80;99.90
53053;DHT22;38934;52.690;6.184;2024-02-15T07:14:53;11.40;99.90
53053;DHT22;38934;52.690;6.184;2024-02-15T07:17:20;11.40;99.90
53053;DHT22;38934;52.690;6.184;2024-02-15T07:19:46;11.40;99.90
53053;DHT22;38934;52.690;6.184;2024-02-15T07:22:15;11.30;99.90
53053;DHT22;38934;52.690;6.184;2024-02-15T07:24:40;11.40;99.90
53053;DHT22;38934;52.690;6.184;2024-02-15T07:27:06;11.50;99.90
53053;DHT22;38934;52.690;6.184;2024-02-15T07:29:31;11.40;99.90
53053;DHT22;38934;52.690;6.184;2024-02-15T07:32:00;11.50;99.90
53053;DHT22;38934;52.690;6.184;2024-02-15T07:34:27;11.40;99.90
53053;DHT22;38934;52.690;6.184;2024-02-15T07:36:53;11.40;99.90
53053;DHT22;38934;52.690;6.184;2024-02-15T07:39:18;11.40;99.90
53053;DHT22;38934;52.690;6.184;2024-02-15T07:41:54;11.40;99.90
53053;DHT22;38934;52.690;6.184;2024-02-15T07:44:20;11.50;99.90
53053;DHT22;38934;52.690;6.184;2024-02-15T07:46:47;11.60;99.90
53053;DHT22;38934;52.690;6.184;2024-02-15T07:49:13;11.50;99.90
53053;DHT22;38934;52.690;6.184;2024-02-15T07:51:38;11.60;99.90
53053;DHT22;38934;52.690;6.184;2024-02-15T07:54:04;11.40;99.90
53053;DHT22;38934;52.690;6.184;2024-02-15T07:56:30;11.60;99.90
53053;DHT22;38934;52.690;6.184;2024-02-15T07:58:55;11.50;99.90
53053;DHT22;38934;52.690;6.184;2024-02-15T08:01:22;11.50;99.90
53053;DHT22;38934;52.690;6.184;2024-02-15T08:03:48;11.40;99.90
53053;DHT22;38934;52.690;6.184;2024-02-15T08:06:15;11.60;99.90
53053;DHT22;38934;52.690;6.184;2024-02-15T08:08:42;11.60;99.90
53053;DHT22;38934;52.690;6.184;2024-02-15T08:11:08;11.50;99.90
53053;DHT22;38934;52.690;6.184;2024-02-15T08:13:51;11.50;99.90
53053;DHT22;38934;52.690;6.184;2024-02-15T08:16:20;11.90;99.90
53053;DHT22;38934;52.690;6.184;2024-02-15T08:18:48;11.70;99.90
53053;DHT22;38934;52.690;6.184;2024-02-15T08:21:17;11.70;99.90
53053;DHT22;38934;52.690;6.184;2024-02-15T08:23:43;11.60;99.90
53053;DHT22;38934;52.690;6.184;2024-02-15T08:26:09;11.60;99.90
53053;DHT22;38934;52.690;6.184;2024-02-15T08:28:38;11.70;99.90
53053;DHT22;38934;52.690;6.184;2024-02-15T08:31:04;11.60;99.90
53053;DHT22;38934;52.690;6.184;2024-02-15T08:33:29;11.70;99.90
53053;DHT22;38934;52.690;6.184;2024-02-15T08:35:56;11.60;99.90
53053;DHT22;38934;52.690;6.184;2024-02-15T08:38:24;11.80;99.90
53053;DHT22;38934;52.690;6.184;2024-02-15T08:40:50;11.80;99.90
53053;DHT22;38934;52.690;6.184;2024-02-15T08:43:15;11.80;99.90
53053;DHT22;38934;52.690;6.184;2024-02-15T08:45:42;11.60;99.90
53053;DHT22;38934;52.690;6.184;2024-02-15T08:48:08;11.70;99.90
53053;DHT22;38934;52.690;6.184;2024-02-15T08:50:34;11.80;99.90
53053;DHT22;38934;52.690;6.184;2024-02-15T08:53:01;11.90;99.90
53053;DHT22;38934;52.690;6.184;2024-02-15T08:55:27;12.00;99.90
53053;DHT22;38934;52.690;6.184;2024-02-15T08:57:53;11.70;99.90
53053;DHT22;38934;52.690;6.184;2024-02-15T09:00:20;11.70;99.90
53053;DHT22;38934;52.690;6.184;2024-02-15T09:02:46;11.70;99.90
53053;DHT22;38934;52.690;6.184;2024-02-15T09:05:13;11.90;99.90
53053;DHT22;38934;52.690;6.184;2024-02-15T09:07:44;11.90;99.90
53053;DHT22;38934;52.690;6.184;2024-02-15T09:10:16;11.90;99.90
53053;DHT22;38934;52.690;6.184;2024-02-15T09:12:43;11.70;99.90
53053;DHT22;38934;52.690;6.184;2024-02-15T09:15:10;11.80;99.90
53053;DHT22;38934;52.690;6.184;2024-02-15T09:17:36;12.00;99.90
53053;DHT22;38934;52.690;6.184;2024-02-15T09:20:08;11.90;99.90
53053;DHT22;38934;52.690;6.184;2024-02-15T09:22:43;11.80;99.90
53053;DHT22;38934;52.690;6.184;2024-02-15T09:25:10;12.10;99.90
53053;DHT22;38934;52.690;6.184;2024-02-15T09:27:36;12.80;99.90
53053;DHT22;38934;52.690;6.184;2024-02-15T09:30:02;12.00;99.90
53053;DHT22;38934;52.690;6.184;2024-02-15T09:32:28;12.00;99.90
53053;DHT22;38934;52.690;6.184;2024-02-15T09:34:54;12.10;99.90
53053;DHT22;38934;52.690;6.184;2024-02-15T09:37:19;12.10;99.90
53053;DHT22;38934;52.690;6.184;2024-02-15T09:39:45;12.20;99.90
53053;DHT22;38934;52.690;6.184;2024-02-15T09:42:11;12.60;99.90
53053;DHT22;38934;52.690;6.184;2024-02-15T09:44:37;12.20;99.90
53053;DHT22;38934;52.690;6.184;2024-02-15T09:47:06;13.00;99.90
53053;DHT22;38934;52.690;6.184;2024-02-15T09:49:39;12.90;99.90
53053;DHT22;38934;52.690;6.184;2024-02-15T09:52:07;12.30;99.90
53053;DHT22;38934;52.690;6.184;2024-02-15T09:54:43;12.50;99.90
53053;DHT22;38934;52.690;6.184;2024-02-15T09:57:10;12.50;99.90
53053;DHT22;38934;52.690;6.184;2024-02-15T09:59:39;12.40;99.90
53053;DHT22;38934;52.690;6.184;2024-02-15T10:02:05;12.40;99.90
53053;DHT22;38934;52.690;6.184;2024-02-15T10:04:45;12.60;99.90
53053;DHT22;38934;52.690;6.184;2024-02-15T10:07:12;12.70;99.90
53053;DHT22;38934;52.690;6.184;2024-02-15T10:09:39;12.50;99.90
53053;DHT22;38934;52.690;6.184;2024-02-15T10:12:08;13.10;99.90
53053;DHT22;38934;52.690;6.184;2024-02-15T10:14:35;12.60;99.90
53053;DHT22;38934;52.690;6.184;2024-02-15T10:17:08;13.00;99.90
53053;DHT22;38934;52.690;6.184;2024-02-15T10:19:38;12.70;99.90
53053;DHT22;38934;52.690;6.184;2024-02-15T10:22:08;12.60;99.90
53053;DHT22;38934;52.690;6.184;2024-02-15T10:24:34;12.70;99.90
53053;DHT22;38934;52.690;6.184;2024-02-15T10:27:04;12.60;99.90
53053;DHT22;38934;52.690;6.184;2024-02-15T10:29:33;12.70;99.90
53053;DHT22;38934;52.690;6.184;2024-02-15T10:32:03;12.60;99.90
53053;DHT22;38934;52.690;6.184;2024-02-15T10:34:30;12.50;99.90
53053;DHT22;38934;52.690;6.184;2024-02-15T10:37:15;12.50;99.90
53053;DHT22;38934;52.690;6.184;2024-02-15T10:40:06;12.60;99.90
53053;DHT22;38934;52.690;6.184;2024-02-15T10:42:36;12.50;99.90
53053;DHT22;38934;52.690;6.184;2024-02-15T10:45:03;12.50;99.90
53053;DHT22;38934;52.690;6.184;2024-02-15T10:47:30;12.50;99.90
53053;DHT22;38934;52.690;6.184;2024-02-15T10:49:57;12.50;99.90
53053;DHT22;38934;52.690;6.184;2024-02-15T10:52:25;12.70;99.90
53053;DHT22;38934;52.690;6.184;2024-02-15T10:55:01;12.60;99.90
53053;DHT22;38934;52.690;6.184;2024-02-15T10:57:31;12.60;99.90
53053;DHT22;38934;52.690;6.184;2024-02-15T10:59:59;12.50;99.90
53053;DHT22;38934;52.690;6.184;2024-02-15T11:02:42;12.80;99.90
53053;DHT22;38934;52.690;6.184;2024-02-15T11:05:09;12.70;99.90
53053;DHT22;38934;52.690;6.184;2024-02-15T11:07:38;12.60;99.90
53053;DHT22;38934;52.690;6.184;2024-02-15T11:10:07;12.60;99.90
53053;DHT22;38934;52.690;6.184;2024-02-15T11:12:36;12.50;99.90
53053;DHT22;38934;52.690;6.184;2024-02-15T11:15:03;12.50;99.90
53053;DHT22;38934;52.690;6.184;2024-02-15T11:20:20;12.50;99.90
53053;DHT22;38934;52.690;6.184;2024-02-15T11:23:00;12.40;99.90
53053;DHT22;38934;52.690;6.184;2024-02-15T11:25:37;12.40;99.90
53053;DHT22;38934;52.690;6.184;2024-02-15T11:30:52;12.50;99.90
53053;DHT22;38934;52.690;6.184;2024-02-15T11:33:34;12.50;99.90
53053;DHT22;38934;52.690;6.184;2024-02-15T11:36:05;12.50;99.90
53053;DHT22;38934;52.690;6.184;2024-02-15T11:38:31;12.50;99.90
53053;DHT22;38934;52.690;6.184;2024-02-15T11:46:20;12.50;99.90
53053;DHT22;38934;52.690;6.184;2024-02-15T11:48:46;12.50;99.90
53053;DHT22;38934;52.690;6.184;2024-02-15T11:51:29;12.40;99.90
53053;DHT22;38934;52.690;6.184;2024-02-15T11:54:02;12.40;99.90
53053;DHT22;38934;52.690;6.184;2024-02-15T11:59:09;13.00;99.90
53053;DHT22;38934;52.690;6.184;2024-02-15T12:01:38;12.60;99.90
53053;DHT22;38934;52.690;6.184;2024-02-15T12:04:22;12.40;99.90
53053;DHT22;38934;52.690;6.184;2024-02-15T12:07:21;12.50;99.90
53053;DHT22;38934;52.690;6.184;2024-02-15T12:10:06;12.60;99.90
53053;DHT22;38934;52.690;6.184;2024-02-15T12:12:54;12.60;99.90
53053;DHT22;38934;52.690;6.184;2024-02-15T12:15:38;12.70;99.90
53053;DHT22;38934;52.690;6.184;2024-02-15T12:18:23;12.60;99.90
53053;DHT22;38934;52.690;6.184;2024-02-15T12:21:08;12.80;99.90
53053;DHT22;38934;52.690;6.184;2024-02-15T12:23:37;12.80;99.90
53053;DHT22;38934;52.690;6.184;2024-02-15T12:26:03;12.70;99.90
53053;DHT22;38934;52.690;6.184;2024-02-15T12:28:29;12.80;99.90
53053;DHT22;38934;52.690;6.184;2024-02-15T12:30:56;12.60;99.90
53053;DHT22;38934;52.690;6.184;2024-02-15T12:33:24;12.70;99.90
53053;DHT22;38934;52.690;6.184;2024-02-15T12:36:06;12.70;99.90
53053;DHT22;38934;52.690;6.184;2024-02-15T12:38:32;12.80;99.90
53053;DHT22;38934;52.690;6.184;2024-02-15T12:40:59;12.80;99.90
53053;DHT22;38934;52.690;6.184;2024-02-15T12:43:27;12.70;99.90
53053;DHT22;38934;52.690;6.184;2024-02-15T12:45:53;13.10;99.90
53053;DHT22;38934;52.690;6.184;2024-02-15T12:48:19;12.70;99.90
53053;DHT22;38934;52.690;6.184;2024-02-15T12:50:45;12.60;99.90
53053;DHT22;38934;52.690;6.184;2024-02-15T12:53:11;12.50;99.90
53053;DHT22;38934;52.690;6.184;2024-02-15T12:55:39;12.70;99.90
53053;DHT22;38934;52.690;6.184;2024-02-15T12:58:06;12.70;99.90
53053;DHT22;38934;52.690;6.184;2024-02-15T13:00:36;12.60;99.90
53053;DHT22;38934;52.690;6.184;2024-02-15T13:03:05;12.60;99.90
53053;DHT22;38934;52.690;6.184;2024-02-15T13:05:31;12.60;99.90
53053;DHT22;38934;52.690;6.184;2024-02-15T13:07:57;12.60;99.90
53053;DHT22;38934;52.690;6.184;2024-02-15T13:10:23;13.30;99.90
53053;DHT22;38934;52.690;6.184;2024-02-15T13:12:53;12.60;99.90
53053;DHT22;38934;52.690;6.184;2024-02-15T13:15:19;12.60;99.90
53053;DHT22;38934;52.690;6.184;2024-02-15T13:17:47;12.70;99.90
53053;DHT22;38934;52.690;6.184;2024-02-15T13:20:17;12.60;99.90
53053;DHT22;38934;52.690;6.184;2024-02-15T13:22:46;12.60;99.90
53053;DHT22;38934;52.690;6.184;2024-02-15T13:25:15;12.50;99.90
53053;DHT22;38934;52.690;6.184;2024-02-15T13:27:49;12.60;99.90
53053;DHT22;38934;52.690;6.184;2024-02-15T13:30:14;12.60;99.90
53053;DHT22;38934;52.690;6.184;2024-02-15T13:32:42;12.60;99.90
53053;DHT22;38934;52.690;6.184;2024-02-15T13:35:09;12.70;99.90
53053;DHT22;38934;52.690;6.184;2024-02-15T13:37:46;12.70;99.90
53053;DHT22;38934;52.690;6.184;2024-02-15T13:40:13;12.70;99.90
53053;DHT22;38934;52.690;6.184;2024-02-15T13:42:43;12.70;99.90
53053;DHT22;38934;52.690;6.184;2024-02-15T13:45:15;12.80;99.90
53053;DHT22;38934;52.690;6.184;2024-02-15T13:47:40;12.70;99.90
53053;DHT22;38934;52.690;6.184;2024-02-15T13:50:06;12.70;99.90
53053;DHT22;38934;52.690;6.184;2024-02-15T13:52:33;12.80;99.90
53053;DHT22;38934;52.690;6.184;2024-02-15T13:55:00;12.80;99.90
53053;DHT22;38934;52.690;6.184;2024-02-15T13:57:25;12.90;99.90
53053;DHT22;38934;52.690;6.184;2024-02-15T13:59:51;12.90;99.90
53053;DHT22;38934;52.690;6.184;2024-02-15T14:02:17;12.90;99.90
53053;DHT22;38934;52.690;6.184;2024-02-15T14:04:44;13.20;99.90
53053;DHT22;38934;52.690;6.184;2024-02-15T14:07:09;12.90;99.90
53053;DHT22;38934;52.690;6.184;2024-02-15T14:09:35;13.20;99.90
53053;DHT22;38934;52.690;6.184;2024-02-15T14:12:00;13.10;99.90
53053;DHT22;38934;52.690;6.184;2024-02-15T14:14:29;13.20;99.90
53053;DHT22;38934;52.690;6.184;2024-02-15T14:16:55;13.10;99.90
53053;DHT22;38934;52.690;6.184;2024-02-15T14:19:21;13.50;99.90
53053;DHT22;38934;52.690;6.184;2024-02-15T14:21:46;13.40;99.90
53053;DHT22;38934;52.690;6.184;2024-02-15T14:24:12;13.50;99.90
53053;DHT22;38934;52.690;6.184;2024-02-15T14:26:38;13.90;99.90
53053;DHT22;38934;52.690;6.184;2024-02-15T14:29:04;13.50;99.90
53053;DHT22;38934;52.690;6.184;2024-02-15T14:31:30;13.70;99.90
53053;DHT22;38934;52.690;6.184;2024-02-15T14:34:14;13.50;99.90
53053;DHT22;38934;52.690;6.184;2024-02-15T14:36:41;13.50;99.90
53053;DHT22;38934;52.690;6.184;2024-02-15T14:39:08;13.50;99.90
53053;DHT22;38934;52.690;6.184;2024-02-15T14:41:35;13.60;99.90
53053;DHT22;38934;52.690;6.184;2024-02-15T14:44:00;13.50;99.90
53053;DHT22;38934;52.690;6.184;2024-02-15T14:46:26;13.50;99.90
53053;DHT22;38934;52.690;6.184;2024-02-15T14:48:52;13.50;99.90
53053;DHT22;38934;52.690;6.184;2024-02-15T14:51:19;13.50;99.90
53053;DHT22;38934;52.690;6.184;2024-02-15T14:53:45;13.60;99.90
53053;DHT22;38934;52.690;6.184;2024-02-15T14:56:11;13.50;99.90
53053;DHT22;38934;52.690;6.184;2024-02-15T14:58:36;13.60;99.90
53053;DHT22;38934;52.690;6.184;2024-02-15T15:01:02;13.60;99.90
53053;DHT22;38934;52.690;6.184;2024-02-15T15:03:31;13.50;99.90
53053;DHT22;38934;52.690;6.184;2024-02-15T15:06:03;13.60;99.90
53053;DHT22;38934;52.690;6.184;2024-02-15T15:08:47;13.50;99.90
53053;DHT22;38934;52.690;6.184;2024-02-15T15:11:31;13.80;99.90
53053;DHT22;38934;52.690;6.184;2024-02-15T15:14:29;13.50;99.90
53053;DHT22;38934;52.690;6.184;2024-02-15T15:16:55;13.50;99.90
53053;DHT22;38934;52.690;6.184;2024-02-15T15:19:21;13.50;99.90
53053;DHT22;38934;52.690;6.184;2024-02-15T15:21:47;13.50;99.90
53053;DHT22;38934;52.690;6.184;2024-02-15T15:24:13;13.50;99.90
53053;DHT22;38934;52.690;6.184;2024-02-15T15:26:38;13.50;99.90
53053;DHT22;38934;52.690;6.184;2024-02-15T15:29:04;13.40;99.90
53053;DHT22;38934;52.690;6.184;2024-02-15T15:31:30;13.30;99.90
53053;DHT22;38934;52.690;6.184;2024-02-15T15:33:56;13.30;99.90
53053;DHT22;38934;52.690;6.184;2024-02-15T15:36:22;13.30;99.90
53053;DHT22;38934;52.690;6.184;2024-02-15T15:38:47;13.20;99.90
53053;DHT22;38934;52.690;6.184;2024-02-15T15:41:13;13.20;99.90
53053;DHT22;38934;52.690;6.184;2024-02-15T15:43:39;13.10;99.90
53053;DHT22;38934;52.690;6.184;2024-02-15T15:46:04;13.10;99.90
53053;DHT22;38934;52.690;6.184;2024-02-15T15:48:30;13.10;99.90
53053;DHT22;38934;52.690;6.184;2024-02-15T15:50:56;13.00;99.90